CheckWX is a tool to help pilots better visualize weather data.  It is not intended as a substitute for an official pre-flight weather briefing.

15:22:22 UTC

KJKA METAR
Jack Edwards Airport
Gulf Shores, Alabama, USA
Current

7 mins ago

KJKA 261515Z AUTO 13005KT 10SM CLR 32/19 A3015 RMK AO2 T03200186
Observed
May-26 @ 15:15 UTC
Wind
  • 130° at 5 KTS
Visibility
10 SM
Flight Rules
VFR
Cloud Levels
  • Clear skies
Temperature
32°C / 90°F
Dewpoint
19°C / 66°F
Heat Index
34°C / 93°F
Humidity
46%
Altimeter
30.15" Hg
Pressure
1021.02 hPa
Previous

27 mins ago

KJKA 261455Z AUTO 11004KT 10SM CLR 32/20 A3015 RMK AO2 T03200200
Observed
May-26 @ 14:55 UTC
Wind
  • 110° at 4 KTS
Visibility
10 SM
Flight Rules
VFR
Cloud Levels
  • Clear skies
Temperature
32°C / 90°F
Dewpoint
20°C / 68°F
Heat Index
34°C / 94°F
Humidity
49%
Altimeter
30.15" Hg
Pressure
1021.02 hPa
Previous

47 mins ago

KJKA 261435Z AUTO 11006KT 10SM CLR 32/20 A3015 RMK AO2 T03180200
Observed
May-26 @ 14:35 UTC
Wind
  • 110° at 6 KTS
Visibility
10 SM
Flight Rules
VFR
Cloud Levels
  • Clear skies
Temperature
32°C / 90°F
Dewpoint
20°C / 68°F
Heat Index
34°C / 94°F
Humidity
49%
Altimeter
30.15" Hg
Pressure
1021.02 hPa